Time;durP1;ratioP1;P1;durP2;ratioP2;P2;SDS_P1;SDS_P2;PMS_P1;PMS_P2;Temp;Humidity;BMP_temperature;BMP_pressure;BME280_temperature;BME280_humidity;BME280_pressure;Samples;Min_cycle;Max_cycle;Signal;HPM_P1;HPM_P2
2022/03/09 00:02:26;;;;;;;6.32;3.22;;;;;;;;;;6277745;22;20335;-88
2022/03/09 00:04:54;;;;;;;6.18;3.15;;;;;;;;;;6278783;22;20103;-88
2022/03/09 00:07:26;;;;;;;9.82;3.72;;;;;;;;;;6278484;22;20023;-88
2022/03/09 00:09:54;;;;;;;7.25;3.42;;;;;;;;;;6280028;22;20754;-88
2022/03/09 00:12:26;;;;;;;6.60;3.30;;;;;;;;;;6277843;22;20030;-88
2022/03/09 00:14:54;;;;;;;10.35;3.83;;;;;;;;;;6277556;22;20027;-88
2022/03/09 00:17:22;;;;;;;8.82;3.45;;;;;;;;;;6278408;22;20020;-88
2022/03/09 00:19:50;;;;;;;5.95;2.83;;;;;;;;;;6278233;22;20058;-88
2022/03/09 00:22:18;;;;;;;7.90;3.42;;;;;;;;;;6278511;22;20023;-88
2022/03/09 00:24:46;;;;;;;7.05;3.50;;;;;;;;;;6278170;22;20019;-88
2022/03/09 00:27:14;;;;;;;7.80;3.35;;;;;;;;;;6279465;22;20642;-88
2022/03/09 00:29:42;;;;;;;10.07;2.88;;;;;;;;;;6277784;22;20266;-88
2022/03/09 00:32:11;;;;;;;10.05;3.67;;;;;;;;;;6250852;22;20019;-88
2022/03/09 00:34:39;;;;;;;6.97;3.17;;;;;;;;;;6279476;22;20019;-87
2022/03/09 00:37:06;;;;;;;6.22;3.10;;;;;;;;;;6277860;22;20031;-88
2022/03/09 00:39:34;;;;;;;6.55;3.47;;;;;;;;;;6278092;22;20019;-88
2022/03/09 00:42:03;;;;;;;5.65;2.65;;;;;;;;;;6279512;22;20046;-88
2022/03/09 00:44:30;;;;;;;10.20;3.25;;;;;;;;;;6273662;22;20074;-87
2022/03/09 00:46:58;;;;;;;6.75;3.28;;;;;;;;;;6276274;22;20012;-86
2022/03/09 00:49:26;;;;;;;9.18;3.60;;;;;;;;;;6277107;22;20019;-87
2022/03/09 00:51:54;;;;;;;7.10;3.28;;;;;;;;;;6276377;22;20343;-86
2022/03/09 00:54:22;;;;;;;7.25;3.60;;;;;;;;;;6278059;22;20022;-88
2022/03/09 00:56:50;;;;;;;7.28;3.85;;;;;;;;;;6280954;22;20090;-89
2022/03/09 00:59:18;;;;;;;7.10;2.75;;;;;;;;;;6280980;22;20450;-88
2022/03/09 01:01:46;;;;;;;12.55;3.50;;;;;;;;;;6279661;22;20025;-88
2022/03/09 01:04:14;;;;;;;8.85;3.35;;;;;;;;;;6281044;22;20024;-88
2022/03/09 01:06:43;;;;;;;6.18;2.92;;;;;;;;;;6281385;22;20020;-89
2022/03/09 01:09:10;;;;;;;8.70;3.00;;;;;;;;;;6278167;22;20239;-88
2022/03/09 01:11:38;;;;;;;6.55;3.42;;;;;;;;;;6275703;22;20050;-88
2022/03/09 01:14:06;;;;;;;8.30;3.40;;;;;;;;;;6266557;22;20047;-86
2022/03/09 01:16:34;;;;;;;6.50;3.35;;;;;;;;;;6280103;22;20475;-89
2022/03/09 01:19:02;;;;;;;7.57;3.72;;;;;;;;;;6281910;22;20019;-90
2022/03/09 01:21:31;;;;;;;8.57;3.83;;;;;;;;;;6269781;22;20031;-89
2022/03/09 01:23:58;;;;;;;7.35;3.25;;;;;;;;;;6281900;22;20455;-90
2022/03/09 01:26:26;;;;;;;6.53;3.28;;;;;;;;;;6281614;22;20046;-90
2022/03/09 01:28:54;;;;;;;6.07;3.13;;;;;;;;;;6281934;22;20119;-89
2022/03/09 01:31:22;;;;;;;6.63;3.03;;;;;;;;;;6281590;22;20016;-89
2022/03/09 01:33:50;;;;;;;6.43;3.30;;;;;;;;;;6280890;22;20370;-89
2022/03/09 01:36:18;;;;;;;8.57;3.53;;;;;;;;;;6281238;22;20031;-89
2022/03/09 01:38:48;;;;;;;9.55;3.22;;;;;;;;;;6282319;22;20024;-90
2022/03/09 01:41:16;;;;;;;13.13;3.42;;;;;;;;;;6282039;22;20028;-89
2022/03/09 01:43:44;;;;;;;7.93;3.30;;;;;;;;;;6281975;22;20054;-88
2022/03/09 01:46:12;;;;;;;5.78;3.22;;;;;;;;;;6280990;22;20382;-88
2022/03/09 01:48:41;;;;;;;10.35;3.38;;;;;;;;;;6280361;22;20099;-89
2022/03/09 01:51:11;;;;;;;7.22;3.42;;;;;;;;;;6280935;22;20062;-88
2022/03/09 01:53:41;;;;;;;8.90;3.55;;;;;;;;;;6280654;22;20350;-88
2022/03/09 01:56:10;;;;;;;7.82;3.50;;;;;;;;;;6280669;22;20015;-88
2022/03/09 01:58:40;;;;;;;6.30;3.05;;;;;;;;;;6280267;22;20050;-88
2022/03/09 02:01:06;;;;;;;4.65;2.95;;;;;;;;;;6281271;22;20065;-90
2022/03/09 02:03:35;;;;;;;6.32;3.22;;;;;;;;;;6282044;22;20020;-89
2022/03/09 02:06:02;;;;;;;7.55;3.38;;;;;;;;;;6282187;22;20405;-89
2022/03/09 02:11:17;;;;;;;6.63;2.97;;;;;;;;;;6283160;22;20028;-88
2022/03/09 02:13:45;;;;;;;8.95;3.20;;;;;;;;;;6282339;22;20023;-89
2022/03/09 02:16:14;;;;;;;7.88;3.38;;;;;;;;;;6283265;22;20026;-89
2022/03/09 02:18:42;;;;;;;7.32;3.22;;;;;;;;;;6282473;22;20019;-89
2022/03/09 02:21:15;;;;;;;7.13;3.00;;;;;;;;;;6282810;22;20023;-88
2022/03/09 02:23:44;;;;;;;7.78;3.33;;;;;;;;;;6282684;22;20027;-88
2022/03/09 02:26:13;;;;;;;7.35;3.45;;;;;;;;;;6282959;22;20042;-88
2022/03/09 02:28:46;;;;;;;7.70;3.20;;;;;;;;;;6282781;22;20054;-88
2022/03/09 02:31:14;;;;;;;7.30;2.92;;;;;;;;;;6282736;22;20043;-88
2022/03/09 02:33:44;;;;;;;5.90;3.03;;;;;;;;;;6280738;22;20058;-90
2022/03/09 02:36:15;;;;;;;5.18;2.60;;;;;;;;;;6284106;22;20043;-90
2022/03/09 02:38:42;;;;;;;5.97;3.00;;;;;;;;;;6284009;22;20091;-90
2022/03/09 02:41:10;;;;;;;8.15;3.25;;;;;;;;;;6283546;22;20065;-90
2022/03/09 02:43:38;;;;;;;5.60;2.60;;;;;;;;;;6283885;22;20354;-90
2022/03/09 02:46:09;;;;;;;8.45;3.60;;;;;;;;;;6283525;22;20467;-90
2022/03/09 02:48:36;;;;;;;8.20;3.25;;;;;;;;;;6283424;22;20085;-90
2022/03/09 02:51:04;;;;;;;7.93;2.80;;;;;;;;;;6282217;22;20039;-89
2022/03/09 02:53:32;;;;;;;5.65;2.60;;;;;;;;;;6283137;22;20492;-88
2022/03/09 02:56:00;;;;;;;7.90;3.88;;;;;;;;;;6281768;22;20019;-88
2022/03/09 02:58:28;;;;;;;9.68;3.67;;;;;;;;;;6282106;22;20099;-88
2022/03/09 03:00:56;;;;;;;8.98;3.10;;;;;;;;;;6282128;22;20016;-88
2022/03/09 03:03:24;;;;;;;7.40;3.30;;;;;;;;;;6280793;22;20368;-88
2022/03/09 03:05:52;;;;;;;10.27;3.67;;;;;;;;;;6281814;22;20132;-88
2022/03/09 03:08:20;;;;;;;6.38;2.78;;;;;;;;;;6282447;22;20023;-88
2022/03/09 03:10:48;;;;;;;8.50;2.80;;;;;;;;;;6281645;22;20522;-88
2022/03/09 03:13:16;;;;;;;5.10;2.40;;;;;;;;;;6282486;22;20047;-89
2022/03/09 03:15:46;;;;;;;7.65;2.90;;;;;;;;;;6282143;22;20019;-88
2022/03/09 03:18:14;;;;;;;6.78;2.80;;;;;;;;;;6281899;22;20094;-88
2022/03/09 03:20:42;;;;;;;8.27;3.42;;;;;;;;;;6281500;22;20016;-88
2022/03/09 03:23:10;;;;;;;7.28;3.03;;;;;;;;;;6281976;22;20427;-88
2022/03/09 03:25:42;;;;;;;6.60;3.25;;;;;;;;;;6281699;22;20023;-88
2022/03/09 03:28:10;;;;;;;10.00;3.10;;;;;;;;;;6281955;22;20115;-89
2022/03/09 03:30:38;;;;;;;11.82;2.92;;;;;;;;;;6280415;22;20370;-88
2022/03/09 03:33:06;;;;;;;10.20;3.47;;;;;;;;;;6281650;22;20037;-88
2022/03/09 03:35:34;;;;;;;11.02;3.35;;;;;;;;;;6280447;22;20123;-88
2022/03/09 03:38:03;;;;;;;6.28;2.72;;;;;;;;;;6282651;22;20023;-88
2022/03/09 03:40:30;;;;;;;8.98;3.28;;;;;;;;;;6282375;22;20122;-89
2022/03/09 03:42:58;;;;;;;5.57;2.90;;;;;;;;;;6273275;22;20023;-89
2022/03/09 03:45:26;;;;;;;7.28;3.50;;;;;;;;;;6282214;22;20023;-87
2022/03/09 03:47:54;;;;;;;9.27;3.35;;;;;;;;;;6280307;22;20023;-87
2022/03/09 03:50:23;;;;;;;5.85;3.13;;;;;;;;;;6280768;22;20043;-87
2022/03/09 03:52:51;;;;;;;6.78;2.88;;;;;;;;;;6281219;22;20066;-87
2022/03/09 03:55:18;;;;;;;6.57;3.28;;;;;;;;;;6280577;22;20355;-88
2022/03/09 03:57:45;;;;;;;6.18;2.88;;;;;;;;;;6281575;22;20020;-88
2022/03/09 04:00:14;;;;;;;6.22;2.88;;;;;;;;;;6281959;22;20446;-88
2022/03/09 04:02:41;;;;;;;6.45;3.00;;;;;;;;;;6281938;22;20020;-88
2022/03/09 04:05:09;;;;;;;6.32;3.08;;;;;;;;;;6281685;22;20016;-88
2022/03/09 04:07:37;;;;;;;6.32;3.05;;;;;;;;;;6281623;22;20015;-84
2022/03/09 04:10:06;;;;;;;7.22;3.20;;;;;;;;;;6279514;22;20077;-83
2022/03/09 04:12:34;;;;;;;7.18;3.25;;;;;;;;;;6280086;22;20098;-88
2022/03/09 04:15:04;;;;;;;5.50;3.03;;;;;;;;;;6282565;22;20016;-88
2022/03/09 04:17:39;;;;;;;6.80;2.80;;;;;;;;;;6280898;22;20020;-88
2022/03/09 04:20:08;;;;;;;5.00;2.85;;;;;;;;;;6282273;22;20476;-88
2022/03/09 04:22:35;;;;;;;8.85;3.50;;;;;;;;;;6282463;22;20043;-88
2022/03/09 04:25:07;;;;;;;6.80;3.05;;;;;;;;;;6280172;22;20045;-88
2022/03/09 04:27:34;;;;;;;8.90;3.15;;;;;;;;;;6282079;22;20026;-88
2022/03/09 04:30:03;;;;;;;7.50;3.25;;;;;;;;;;6280019;22;20012;-88
2022/03/09 04:32:32;;;;;;;11.27;3.47;;;;;;;;;;6281803;22;20027;-88
2022/03/09 04:35:01;;;;;;;8.50;3.10;;;;;;;;;;6281428;22;20304;-88
2022/03/09 04:37:30;;;;;;;8.35;3.65;;;;;;;;;;6282324;22;20073;-88
2022/03/09 04:39:58;;;;;;;6.35;3.10;;;;;;;;;;6281662;22;20358;-89
2022/03/09 04:42:26;;;;;;;7.78;3.17;;;;;;;;;;6282921;22;20073;-89
2022/03/09 04:44:54;;;;;;;7.18;3.92;;;;;;;;;;6282511;22;20030;-89
2022/03/09 04:47:24;;;;;;;7.78;3.13;;;;;;;;;;6269846;22;20439;-89
2022/03/09 04:49:55;;;;;;;6.72;2.92;;;;;;;;;;6270265;22;20065;-89
2022/03/09 04:52:23;;;;;;;7.90;3.33;;;;;;;;;;6280324;22;20030;-84
2022/03/09 04:54:51;;;;;;;6.65;3.28;;;;;;;;;;6267136;22;20043;-83
2022/03/09 04:57:19;;;;;;;10.48;3.47;;;;;;;;;;6280841;22;20035;-88
2022/03/09 04:59:47;;;;;;;9.60;3.25;;;;;;;;;;6281105;22;20458;-89
2022/03/09 05:02:15;;;;;;;6.40;2.85;;;;;;;;;;6281321;22;20016;-88
2022/03/09 05:04:43;;;;;;;8.20;3.50;;;;;;;;;;6280886;22;20039;-88
2022/03/09 05:07:11;;;;;;;5.82;2.72;;;;;;;;;;6281182;22;20466;-88
2022/03/09 05:09:39;;;;;;;7.13;3.10;;;;;;;;;;6281181;22;20098;-88
2022/03/09 05:12:08;;;;;;;6.35;3.22;;;;;;;;;;6281025;22;20016;-88
2022/03/09 05:14:35;;;;;;;7.55;3.00;;;;;;;;;;6280759;22;20019;-88
2022/03/09 05:17:03;;;;;;;9.90;3.38;;;;;;;;;;6280926;22;20054;-88
2022/03/09 05:19:31;;;;;;;6.38;2.75;;;;;;;;;;6281768;22;20019;-89
2022/03/09 05:21:59;;;;;;;6.25;2.92;;;;;;;;;;6282204;22;20015;-89
2022/03/09 05:24:41;;;;;;;7.50;3.28;;;;;;;;;;6280541;22;20098;-89
2022/03/09 05:27:12;;;;;;;7.00;3.47;;;;;;;;;;6281855;22;20555;-89
2022/03/09 05:29:39;;;;;;;8.07;3.63;;;;;;;;;;6281448;22;20015;-89
2022/03/09 05:32:08;;;;;;;8.15;3.20;;;;;;;;;;6281369;22;20012;-89
2022/03/09 05:34:35;;;;;;;7.05;3.10;;;;;;;;;;6280325;22;20019;-89
2022/03/09 05:37:03;;;;;;;6.57;3.10;;;;;;;;;;6281653;22;20035;-89
2022/03/09 05:39:31;;;;;;;5.43;3.10;;;;;;;;;;6281161;22;20099;-89
2022/03/09 05:41:59;;;;;;;6.97;2.85;;;;;;;;;;6281574;22;20027;-89
2022/03/09 05:44:27;;;;;;;6.88;2.70;;;;;;;;;;6280843;22;20023;-89
2022/03/09 05:46:57;;;;;;;8.52;3.55;;;;;;;;;;6281631;22;20472;-89
2022/03/09 05:49:24;;;;;;;7.25;3.50;;;;;;;;;;6281449;22;20073;-89
2022/03/09 05:51:52;;;;;;;6.72;3.60;;;;;;;;;;6281168;22;20107;-89
2022/03/09 05:54:20;;;;;;;12.65;4.10;;;;;;;;;;6281610;22;20589;-89
2022/03/09 05:56:48;;;;;;;9.35;3.92;;;;;;;;;;6281025;22;20023;-83
2022/03/09 05:59:15;;;;;;;7.80;3.42;;;;;;;;;;6278191;22;20027;-83
2022/03/09 06:01:45;;;;;;;6.53;3.03;;;;;;;;;;6279020;22;20102;-83
2022/03/09 06:04:13;;;;;;;9.40;3.30;;;;;;;;;;6279011;22;20019;-83
2022/03/09 06:06:41;;;;;;;8.32;3.70;;;;;;;;;;6279308;22;20497;-83
2022/03/09 06:09:09;;;;;;;8.05;3.15;;;;;;;;;;6279120;22;20027;-83
2022/03/09 06:11:37;;;;;;;7.50;3.58;;;;;;;;;;6274392;22;20091;-83
2022/03/09 06:14:05;;;;;;;6.93;3.20;;;;;;;;;;6278553;22;20016;-83
2022/03/09 06:16:34;;;;;;;9.18;3.58;;;;;;;;;;6278228;22;20068;-83
2022/03/09 06:19:02;;;;;;;11.57;4.18;;;;;;;;;;6278607;22;20020;-83
2022/03/09 06:21:29;;;;;;;9.65;3.30;;;;;;;;;;6280522;22;20011;-83
2022/03/09 06:23:57;;;;;;;6.22;3.13;;;;;;;;;;6278795;22;20058;-83
2022/03/09 06:26:25;;;;;;;10.57;3.63;;;;;;;;;;6278355;22;20023;-83
2022/03/09 06:28:54;;;;;;;7.93;3.67;;;;;;;;;;6277936;22;20020;-83
2022/03/09 06:31:21;;;;;;;9.23;3.95;;;;;;;;;;6277341;22;20513;-83
2022/03/09 06:33:50;;;;;;;9.18;3.67;;;;;;;;;;6278138;22;20027;-83
2022/03/09 06:36:17;;;;;;;9.18;3.72;;;;;;;;;;6277797;22;20016;-83
2022/03/09 06:38:45;;;;;;;7.60;3.85;;;;;;;;;;6278565;22;20020;-83
2022/03/09 06:41:13;;;;;;;8.30;3.72;;;;;;;;;;6278731;22;20097;-83
2022/03/09 06:43:42;;;;;;;9.65;3.60;;;;;;;;;;6278199;22;20114;-83
2022/03/09 06:46:10;;;;;;;7.05;3.47;;;;;;;;;;6277279;22;20019;-83
2022/03/09 06:48:37;;;;;;;9.35;3.65;;;;;;;;;;6278107;22;20030;-83
2022/03/09 06:51:05;;;;;;;8.98;3.95;;;;;;;;;;6277996;22;20039;-83
2022/03/09 06:53:37;;;;;;;7.88;3.60;;;;;;;;;;6277875;22;20027;-83
2022/03/09 06:56:05;;;;;;;10.07;3.38;;;;;;;;;;6283220;22;20045;-83
2022/03/09 06:58:33;;;;;;;10.50;4.30;;;;;;;;;;6285095;22;20030;-83
2022/03/09 07:01:01;;;;;;;8.38;3.13;;;;;;;;;;6284745;22;20023;-83
2022/03/09 07:03:30;;;;;;;11.30;3.63;;;;;;;;;;6284157;22;20102;-83
2022/03/09 07:05:57;;;;;;;9.57;4.10;;;;;;;;;;6281676;22;20069;-83
2022/03/09 07:08:25;;;;;;;11.20;4.90;;;;;;;;;;6283640;22;20064;-83
2022/03/09 07:10:53;;;;;;;7.90;3.88;;;;;;;;;;6283162;22;20016;-83
2022/03/09 07:13:21;;;;;;;7.93;3.80;;;;;;;;;;6282854;22;20100;-83
2022/03/09 07:15:49;;;;;;;6.57;3.40;;;;;;;;;;6268546;22;20069;-83
2022/03/09 07:18:18;;;;;;;10.00;3.95;;;;;;;;;;6280953;22;20043;-83
2022/03/09 07:20:45;;;;;;;10.38;3.63;;;;;;;;;;6281239;22;20051;-83
2022/03/09 07:23:13;;;;;;;8.05;3.83;;;;;;;;;;6281199;22;20065;-83
2022/03/09 07:25:43;;;;;;;7.65;4.03;;;;;;;;;;6279280;22;20019;-83
2022/03/09 07:28:10;;;;;;;9.00;4.38;;;;;;;;;;6279658;22;20020;-83
2022/03/09 07:30:37;;;;;;;9.55;4.28;;;;;;;;;;6280011;22;20116;-83
2022/03/09 07:33:05;;;;;;;10.43;3.88;;;;;;;;;;6275679;22;20096;-83
2022/03/09 07:35:33;;;;;;;8.20;4.10;;;;;;;;;;6280922;22;20047;-83
2022/03/09 07:38:02;;;;;;;9.68;3.88;;;;;;;;;;6280007;22;20387;-83
2022/03/09 07:40:29;;;;;;;11.90;3.95;;;;;;;;;;6280360;22;20065;-82
2022/03/09 07:42:59;;;;;;;8.13;3.40;;;;;;;;;;6280244;22;20023;-82
2022/03/09 07:45:27;;;;;;;8.95;3.78;;;;;;;;;;6278478;22;20019;-81
2022/03/09 07:47:56;;;;;;;9.70;4.13;;;;;;;;;;6275647;22;20030;-81
2022/03/09 07:50:23;;;;;;;9.57;3.97;;;;;;;;;;6265949;22;20400;-81
2022/03/09 07:52:51;;;;;;;9.45;4.15;;;;;;;;;;6276800;22;20023;-81
2022/03/09 07:55:19;;;;;;;13.65;3.67;;;;;;;;;;6277870;22;20087;-81
2022/03/09 07:57:47;;;;;;;9.80;3.85;;;;;;;;;;6274571;22;20580;-81
2022/03/09 08:00:16;;;;;;;7.70;3.38;;;;;;;;;;6276981;22;20119;-81
2022/03/09 08:02:44;;;;;;;9.55;3.40;;;;;;;;;;6276611;22;20023;-81
2022/03/09 08:05:12;;;;;;;7.20;3.20;;;;;;;;;;6277481;22;20029;-81
2022/03/09 08:07:39;;;;;;;5.63;3.33;;;;;;;;;;6265556;22;20067;-81
2022/03/09 08:10:09;;;;;;;6.22;3.50;;;;;;;;;;6278305;22;20023;-81
2022/03/09 08:12:38;;;;;;;7.63;3.60;;;;;;;;;;6276707;22;20026;-81
2022/03/09 08:15:10;;;;;;;7.32;4.35;;;;;;;;;;6277375;22;20078;-81
2022/03/09 08:17:38;;;;;;;7.38;4.20;;;;;;;;;;6267037;22;20020;-81
2022/03/09 08:20:06;;;;;;;10.10;3.72;;;;;;;;;;6277032;22;20049;-81
2022/03/09 08:22:34;;;;;;;8.15;3.33;;;;;;;;;;6277707;22;20030;-81
2022/03/09 08:25:02;;;;;;;8.18;3.53;;;;;;;;;;6277714;22;20015;-82
2022/03/09 08:27:33;;;;;;;8.57;4.07;;;;;;;;;;6275610;22;20019;-82
2022/03/09 08:30:03;;;;;;;6.70;3.45;;;;;;;;;;6277138;22;20037;-82
2022/03/09 08:32:31;;;;;;;9.75;3.97;;;;;;;;;;6276595;22;20020;-81
2022/03/09 08:34:59;;;;;;;7.13;3.25;;;;;;;;;;6276172;22;20024;-81
2022/03/09 08:37:27;;;;;;;9.65;3.72;;;;;;;;;;6274846;22;20026;-81
2022/03/09 08:39:56;;;;;;;5.00;3.03;;;;;;;;;;6276275;22;20850;-82
2022/03/09 08:42:27;;;;;;;10.60;4.40;;;;;;;;;;6266943;22;20011;-82
2022/03/09 08:44:56;;;;;;;9.90;3.80;;;;;;;;;;6275074;22;20774;-82
2022/03/09 08:47:26;;;;;;;6.22;3.05;;;;;;;;;;6274983;22;20663;-82
2022/03/09 08:49:57;;;;;;;6.35;3.67;;;;;;;;;;6276164;22;20687;-82
2022/03/09 08:52:46;;;;;;;7.68;3.78;;;;;;;;;;6274733;22;20015;-82
2022/03/09 08:55:15;;;;;;;10.18;3.42;;;;;;;;;;6275735;22;20069;-82
2022/03/09 08:57:46;;;;;;;9.30;3.50;;;;;;;;;;6276665;22;20120;-82
2022/03/09 09:00:17;;;;;;;6.45;3.28;;;;;;;;;;6276245;22;20024;-82
2022/03/09 09:02:48;;;;;;;9.77;3.95;;;;;;;;;;6275845;22;20095;-82
2022/03/09 09:05:19;;;;;;;7.15;3.28;;;;;;;;;;6277432;22;20023;-82
2022/03/09 09:07:48;;;;;;;7.15;3.08;;;;;;;;;;6277641;22;20045;-82
2022/03/09 09:10:16;;;;;;;13.35;3.80;;;;;;;;;;6274887;22;20019;-82
2022/03/09 09:12:46;;;;;;;8.18;3.90;;;;;;;;;;6274924;22;20022;-82
2022/03/09 09:15:14;;;;;;;5.78;3.30;;;;;;;;;;6275856;22;20025;-82
2022/03/09 09:17:42;;;;;;;9.57;3.70;;;;;;;;;;6273799;22;20019;-82
2022/03/09 09:20:28;;;;;;;11.10;4.38;;;;;;;;;;6276636;22;20081;-82
2022/03/09 09:22:56;;;;;;;10.65;3.80;;;;;;;;;;6276829;22;20032;-82
2022/03/09 09:25:34;;;;;;;7.97;3.95;;;;;;;;;;6273768;22;20023;-82
2022/03/09 09:28:02;;;;;;;7.70;3.45;;;;;;;;;;6274112;22;20098;-82
2022/03/09 09:30:32;;;;;;;8.57;3.53;;;;;;;;;;6274196;22;20412;-84
2022/03/09 09:33:02;;;;;;;6.32;3.20;;;;;;;;;;6275629;22;20039;-84
2022/03/09 09:35:30;;;;;;;7.07;3.10;;;;;;;;;;6277330;22;20019;-84
2022/03/09 09:38:07;;;;;;;9.65;3.60;;;;;;;;;;6275667;22;20096;-84
2022/03/09 09:40:41;;;;;;;8.43;3.25;;;;;;;;;;6276343;22;20098;-84
2022/03/09 09:43:12;;;;;;;6.68;3.30;;;;;;;;;;6275509;22;20427;-84
2022/03/09 09:45:41;;;;;;;6.47;3.35;;;;;;;;;;6277255;22;20046;-84
2022/03/09 09:48:09;;;;;;;8.55;3.40;;;;;;;;;;6276623;22;20553;-84
2022/03/09 09:50:37;;;;;;;6.57;2.90;;;;;;;;;;6277934;22;20077;-84
2022/03/09 09:53:08;;;;;;;8.02;3.40;;;;;;;;;;6277016;22;20504;-84
2022/03/09 09:55:36;;;;;;;6.47;3.20;;;;;;;;;;6278366;22;20041;-84
2022/03/09 09:58:04;;;;;;;7.80;3.80;;;;;;;;;;6278369;22;20447;-84
2022/03/09 10:00:32;;;;;;;6.28;3.28;;;;;;;;;;6279252;22;20023;-84
2022/03/09 10:03:03;;;;;;;7.30;3.03;;;;;;;;;;6278469;22;20081;-83
2022/03/09 10:05:32;;;;;;;6.05;3.42;;;;;;;;;;6280014;22;20553;-83
2022/03/09 10:08:06;;;;;;;9.05;3.35;;;;;;;;;;6280053;22;20106;-83
2022/03/09 10:10:39;;;;;;;6.57;3.30;;;;;;;;;;6278906;22;20019;-83
2022/03/09 10:13:20;;;;;;;7.75;3.72;;;;;;;;;;6278851;22;20054;-83
2022/03/09 10:16:07;;;;;;;9.32;3.28;;;;;;;;;;6279492;22;20043;-83
2022/03/09 10:18:35;;;;;;;12.32;3.45;;;;;;;;;;6278104;22;20552;-83
2022/03/09 10:21:17;;;;;;;8.57;3.38;;;;;;;;;;6279675;22;20030;-83
2022/03/09 10:23:59;;;;;;;7.97;3.63;;;;;;;;;;6279531;22;20032;-83
2022/03/09 10:26:34;;;;;;;8.35;3.60;;;;;;;;;;6277353;22;20016;-83
2022/03/09 10:29:17;;;;;;;7.88;3.47;;;;;;;;;;6267928;22;20094;-83
2022/03/09 10:31:50;;;;;;;7.82;3.63;;;;;;;;;;6280336;22;20015;-83
2022/03/09 10:34:24;;;;;;;11.20;3.58;;;;;;;;;;6279614;22;20621;-83
2022/03/09 10:37:04;;;;;;;7.70;3.80;;;;;;;;;;6280095;22;20055;-83
2022/03/09 10:39:34;;;;;;;11.32;4.38;;;;;;;;;;6279516;22;20019;-83
2022/03/09 10:42:03;;;;;;;9.18;4.18;;;;;;;;;;6279607;22;20016;-83
2022/03/09 10:44:42;;;;;;;6.82;3.83;;;;;;;;;;6277675;22;20092;-83
2022/03/09 10:47:10;;;;;;;7.85;3.35;;;;;;;;;;6278204;22;20019;-83
2022/03/09 10:49:37;;;;;;;8.90;4.22;;;;;;;;;;6277485;22;20023;-83
2022/03/09 10:52:07;;;;;;;8.80;3.78;;;;;;;;;;6279686;22;20016;-83
2022/03/09 10:54:35;;;;;;;9.65;3.83;;;;;;;;;;6278728;22;20350;-83
2022/03/09 10:57:11;;;;;;;9.52;3.80;;;;;;;;;;6278034;22;20020;-83
2022/03/09 10:59:44;;;;;;;8.07;3.90;;;;;;;;;;6279080;22;20019;-83
2022/03/09 11:02:11;;;;;;;7.55;3.60;;;;;;;;;;6278356;22;20119;-83
2022/03/09 11:04:40;;;;;;;12.50;4.13;;;;;;;;;;6279154;22;20019;-83
2022/03/09 11:07:09;;;;;;;7.72;4.03;;;;;;;;;;6279681;22;20019;-83
2022/03/09 11:09:37;;;;;;;10.27;3.78;;;;;;;;;;6278720;22;20088;-83
2022/03/09 11:12:06;;;;;;;11.57;3.80;;;;;;;;;;6272268;22;20069;-83
2022/03/09 11:14:34;;;;;;;13.20;3.55;;;;;;;;;;6277027;22;20015;-83
2022/03/09 11:17:04;;;;;;;8.73;3.78;;;;;;;;;;6276932;22;20043;-83
2022/03/09 11:19:31;;;;;;;7.05;3.38;;;;;;;;;;6276002;22;20116;-83
2022/03/09 11:21:59;;;;;;;5.75;3.28;;;;;;;;;;6278012;22;20035;-82
2022/03/09 11:24:30;;;;;;;9.43;4.18;;;;;;;;;;6277082;22;20019;-81
2022/03/09 11:27:02;;;;;;;10.07;5.43;;;;;;;;;;6277487;22;20111;-81
2022/03/09 11:29:35;;;;;;;10.15;3.45;;;;;;;;;;6277891;22;20098;-82
2022/03/09 11:32:05;;;;;;;10.55;4.40;;;;;;;;;;6276147;22;20026;-82
2022/03/09 11:34:42;;;;;;;6.90;3.75;;;;;;;;;;6277564;22;20031;-82
2022/03/09 11:37:09;;;;;;;6.03;3.63;;;;;;;;;;6277238;22;20321;-82
2022/03/09 11:39:42;;;;;;;7.55;3.70;;;;;;;;;;6276293;22;20023;-82
2022/03/09 11:42:20;;;;;;;7.13;3.28;;;;;;;;;;6277668;22;20115;-81
2022/03/09 11:45:14;;;;;;;9.55;3.90;;;;;;;;;;6275913;22;20023;-82
2022/03/09 11:48:17;;;;;;;6.75;3.58;;;;;;;;;;6275747;22;20019;-82
2022/03/09 11:50:45;;;;;;;7.10;4.05;;;;;;;;;;6277389;22;20046;-82
2022/03/09 11:53:15;;;;;;;7.45;3.13;;;;;;;;;;6277079;22;20428;-82
2022/03/09 11:55:43;;;;;;;7.70;3.80;;;;;;;;;;6276665;22;20133;-81
2022/03/09 11:58:13;;;;;;;10.02;3.65;;;;;;;;;;6277405;22;20100;-82
2022/03/09 12:01:00;;;;;;;7.93;3.70;;;;;;;;;;6265623;22;20085;-81
2022/03/09 12:03:39;;;;;;;7.88;3.63;;;;;;;;;;6276323;22;20075;-81
2022/03/09 12:06:44;;;;;;;5.95;3.67;;;;;;;;;;6276993;22;20034;-81
2022/03/09 12:09:11;;;;;;;9.65;4.10;;;;;;;;;;6276373;22;20023;-82
2022/03/09 12:12:05;;;;;;;9.57;4.18;;;;;;;;;;6276091;22;20024;-81
2022/03/09 12:15:05;;;;;;;7.03;3.58;;;;;;;;;;6259245;22;20030;-81
2022/03/09 12:17:37;;;;;;;6.90;3.72;;;;;;;;;;6274667;22;20119;-81
2022/03/09 12:20:25;;;;;;;6.47;3.65;;;;;;;;;;6275281;22;20019;-81
2022/03/09 12:22:56;;;;;;;6.65;3.80;;;;;;;;;;6274182;22;20042;-81
2022/03/09 12:25:43;;;;;;;11.30;4.22;;;;;;;;;;6277263;22;20081;-81
2022/03/09 12:28:23;;;;;;;7.10;4.13;;;;;;;;;;6275910;22;20019;-81
2022/03/09 12:30:56;;;;;;;8.85;3.85;;;;;;;;;;6273858;22;20019;-81
2022/03/09 12:33:27;;;;;;;8.60;3.72;;;;;;;;;;6264537;22;20113;-82
2022/03/09 12:36:24;;;;;;;7.85;3.75;;;;;;;;;;6276901;22;20355;-82
2022/03/09 12:38:59;;;;;;;6.95;3.90;;;;;;;;;;6276407;22;20094;-82
2022/03/09 12:41:33;;;;;;;7.03;4.03;;;;;;;;;;6265980;22;20027;-82
2022/03/09 12:44:10;;;;;;;9.75;4.22;;;;;;;;;;6276998;22;20034;-81
2022/03/09 12:46:40;;;;;;;9.10;4.10;;;;;;;;;;6274466;22;20115;-82
2022/03/09 12:49:11;;;;;;;8.10;3.75;;;;;;;;;;6276100;22;20027;-82
2022/03/09 12:51:59;;;;;;;9.50;4.43;;;;;;;;;;6265255;22;20126;-82
2022/03/09 12:54:38;;;;;;;8.77;3.75;;;;;;;;;;6276723;22;20016;-82
2022/03/09 12:57:09;;;;;;;7.18;4.07;;;;;;;;;;6277734;22;20035;-82
2022/03/09 12:59:40;;;;;;;7.70;4.00;;;;;;;;;;6275912;22;20445;-81
2022/03/09 13:02:07;;;;;;;8.30;3.60;;;;;;;;;;6273648;22;20093;-81
2022/03/09 13:04:36;;;;;;;7.68;4.10;;;;;;;;;;6274644;22;20335;-82
2022/03/09 13:07:13;;;;;;;9.25;4.20;;;;;;;;;;6276111;22;20035;-82
2022/03/09 13:09:44;;;;;;;8.43;4.00;;;;;;;;;;6277107;22;20062;-82
2022/03/09 13:12:13;;;;;;;7.47;3.72;;;;;;;;;;6276201;22;20043;-82
2022/03/09 13:14:42;;;;;;;9.60;4.28;;;;;;;;;;6275781;22;20454;-81
2022/03/09 13:17:10;;;;;;;8.05;3.67;;;;;;;;;;6276193;22;20077;-82
2022/03/09 13:19:40;;;;;;;7.88;3.60;;;;;;;;;;6277248;22;20043;-82
2022/03/09 13:22:07;;;;;;;10.45;4.65;;;;;;;;;;6276317;22;20023;-82
2022/03/09 13:24:35;;;;;;;8.25;3.72;;;;;;;;;;6277556;22;20024;-82
2022/03/09 13:27:21;;;;;;;8.05;3.80;;;;;;;;;;6275826;22;20466;-82
2022/03/09 13:29:49;;;;;;;7.63;4.43;;;;;;;;;;6274892;22;20397;-82
2022/03/09 13:32:32;;;;;;;7.65;4.05;;;;;;;;;;6274756;22;20024;-82
2022/03/09 13:35:00;;;;;;;7.47;4.05;;;;;;;;;;6267021;22;20024;-82
2022/03/09 13:37:34;;;;;;;7.93;3.65;;;;;;;;;;6275510;22;20130;-82
2022/03/09 13:40:03;;;;;;;7.63;3.83;;;;;;;;;;6276610;22;20103;-82
2022/03/09 13:42:36;;;;;;;6.30;3.55;;;;;;;;;;6268376;22;20093;-82
2022/03/09 13:45:09;;;;;;;7.85;4.30;;;;;;;;;;6277134;22;20023;-81
2022/03/09 13:48:04;;;;;;;7.55;4.18;;;;;;;;;;6275285;22;20027;-81
2022/03/09 13:50:34;;;;;;;7.25;4.13;;;;;;;;;;6264100;22;20073;-81
2022/03/09 13:53:07;;;;;;;7.07;3.80;;;;;;;;;;6276217;22;20073;-81
2022/03/09 13:55:40;;;;;;;10.07;4.43;;;;;;;;;;6275477;22;20024;-81
2022/03/09 13:58:15;;;;;;;7.47;4.22;;;;;;;;;;6273541;22;20525;-81
2022/03/09 14:00:43;;;;;;;7.57;4.20;;;;;;;;;;6276498;22;20023;-81
2022/03/09 14:03:19;;;;;;;6.75;3.75;;;;;;;;;;6275457;22;20016;-81
2022/03/09 14:05:48;;;;;;;7.18;4.05;;;;;;;;;;6277853;22;20187;-82
2022/03/09 14:08:27;;;;;;;8.40;4.07;;;;;;;;;;6278646;22;20459;-82
2022/03/09 14:11:14;;;;;;;8.57;3.80;;;;;;;;;;6279043;22;20432;-82
2022/03/09 14:14:02;;;;;;;8.63;3.92;;;;;;;;;;6276349;22;20042;-82
2022/03/09 14:16:42;;;;;;;7.93;3.53;;;;;;;;;;6275951;22;20019;-82
2022/03/09 14:19:13;;;;;;;9.25;4.35;;;;;;;;;;6278602;22;20016;-82
2022/03/09 14:21:42;;;;;;;7.55;4.15;;;;;;;;;;6274868;22;20019;-82
2022/03/09 14:24:10;;;;;;;8.02;3.80;;;;;;;;;;6276952;22;20047;-82
2022/03/09 14:26:43;;;;;;;6.63;3.72;;;;;;;;;;6275581;22;20015;-82
2022/03/09 14:29:12;;;;;;;6.47;4.10;;;;;;;;;;6277273;22;20423;-82
2022/03/09 14:31:42;;;;;;;12.68;4.32;;;;;;;;;;6276345;22;20026;-82
2022/03/09 14:34:08;;;;;;;6.70;3.80;;;;;;;;;;6276109;22;20354;-82
2022/03/09 14:36:37;;;;;;;18.65;6.15;;;;;;;;;;6276896;22;20023;-82
2022/03/09 14:39:04;;;;;;;6.90;3.35;;;;;;;;;;6278536;22;20019;-82
2022/03/09 14:41:33;;;;;;;8.15;3.70;;;;;;;;;;6278050;22;20804;-82
2022/03/09 14:44:01;;;;;;;7.85;4.25;;;;;;;;;;6277823;22;20073;-82
2022/03/09 14:46:28;;;;;;;7.05;3.50;;;;;;;;;;6276251;22;20131;-82
2022/03/09 14:48:56;;;;;;;7.78;3.65;;;;;;;;;;6276062;22;20058;-82
2022/03/09 14:51:25;;;;;;;8.85;3.63;;;;;;;;;;6277067;22;20098;-82
2022/03/09 14:53:52;;;;;;;7.50;3.75;;;;;;;;;;6277541;22;20011;-82
2022/03/09 14:56:20;;;;;;;8.20;3.25;;;;;;;;;;6277707;22;20046;-82
2022/03/09 14:58:51;;;;;;;6.93;3.70;;;;;;;;;;6266596;22;20098;-82
2022/03/09 15:01:19;;;;;;;7.00;3.85;;;;;;;;;;6276184;22;20466;-82
2022/03/09 15:03:50;;;;;;;10.77;3.65;;;;;;;;;;6278193;22;20029;-82